sensor_id;sensor_type;location;lat;lon;timestamp;P1;durP1;ratioP1;P2;durP2;ratioP2
76320;SDS011;65132;52.088;5.402;2023-03-14T00:01:14;8.40;;;2.40;;
76320;SDS011;65132;52.088;5.402;2023-03-14T00:03:42;9.88;;;2.45;;
76320;SDS011;65132;52.088;5.402;2023-03-14T00:06:12;13.13;;;2.75;;
76320;SDS011;65132;52.088;5.402;2023-03-14T00:08:39;13.48;;;2.50;;
76320;SDS011;65132;52.088;5.402;2023-03-14T00:11:11;12.93;;;2.40;;
76320;SDS011;65132;52.088;5.402;2023-03-14T00:13:43;13.73;;;2.88;;
76320;SDS011;65132;52.088;5.402;2023-03-14T00:16:12;10.43;;;2.20;;
76320;SDS011;65132;52.088;5.402;2023-03-14T00:18:39;13.05;;;1.85;;
76320;SDS011;65132;52.088;5.402;2023-03-14T00:21:06;7.88;;;1.40;;
76320;SDS011;65132;52.088;5.402;2023-03-14T00:23:37;11.10;;;1.80;;
76320;SDS011;65132;52.088;5.402;2023-03-14T00:26:12;7.05;;;1.60;;
76320;SDS011;65132;52.088;5.402;2023-03-14T00:28:46;6.40;;;1.23;;
76320;SDS011;65132;52.088;5.402;2023-03-14T00:31:17;10.30;;;1.25;;
76320;SDS011;65132;52.088;5.402;2023-03-14T00:33:44;5.43;;;0.68;;
76320;SDS011;65132;52.088;5.402;2023-03-14T00:36:13;7.82;;;1.27;;
76320;SDS011;65132;52.088;5.402;2023-03-14T00:38:48;7.13;;;1.23;;
76320;SDS011;65132;52.088;5.402;2023-03-14T00:41:20;9.18;;;1.77;;
76320;SDS011;65132;52.088;5.402;2023-03-14T00:43:51;7.30;;;1.08;;
76320;SDS011;65132;52.088;5.402;2023-03-14T00:46:21;12.13;;;1.63;;
76320;SDS011;65132;52.088;5.402;2023-03-14T00:48:50;9.13;;;1.15;;
76320;SDS011;65132;52.088;5.402;2023-03-14T00:51:16;6.78;;;1.30;;
76320;SDS011;65132;52.088;5.402;2023-03-14T00:53:44;3.80;;;1.00;;
76320;SDS011;65132;52.088;5.402;2023-03-14T00:56:11;7.63;;;1.05;;
76320;SDS011;65132;52.088;5.402;2023-03-14T00:58:39;10.80;;;1.15;;
76320;SDS011;65132;52.088;5.402;2023-03-14T01:01:12;9.48;;;1.08;;
76320;SDS011;65132;52.088;5.402;2023-03-14T01:03:41;4.50;;;0.77;;
76320;SDS011;65132;52.088;5.402;2023-03-14T01:06:14;7.65;;;0.80;;
76320;SDS011;65132;52.088;5.402;2023-03-14T01:08:43;4.57;;;1.00;;
76320;SDS011;65132;52.088;5.402;2023-03-14T01:11:14;9.05;;;1.13;;
76320;SDS011;65132;52.088;5.402;2023-03-14T01:13:43;4.53;;;0.80;;
76320;SDS011;65132;52.088;5.402;2023-03-14T01:16:12;3.40;;;0.57;;
76320;SDS011;65132;52.088;5.402;2023-03-14T01:18:43;6.75;;;0.65;;
76320;SDS011;65132;52.088;5.402;2023-03-14T01:21:23;6.15;;;1.02;;
76320;SDS011;65132;52.088;5.402;2023-03-14T01:23:54;5.15;;;0.98;;
76320;SDS011;65132;52.088;5.402;2023-03-14T01:26:25;10.95;;;1.10;;
76320;SDS011;65132;52.088;5.402;2023-03-14T01:28:54;6.60;;;0.60;;
76320;SDS011;65132;52.088;5.402;2023-03-14T01:31:21;7.35;;;1.27;;
76320;SDS011;65132;52.088;5.402;2023-03-14T01:33:48;6.35;;;1.00;;
76320;SDS011;65132;52.088;5.402;2023-03-14T01:36:20;7.13;;;0.80;;
76320;SDS011;65132;52.088;5.402;2023-03-14T01:38:46;5.63;;;0.90;;
76320;SDS011;65132;52.088;5.402;2023-03-14T01:41:16;5.68;;;1.00;;
76320;SDS011;65132;52.088;5.402;2023-03-14T01:43:46;9.77;;;1.35;;
76320;SDS011;65132;52.088;5.402;2023-03-14T01:51:25;5.28;;;0.73;;
76320;SDS011;65132;52.088;5.402;2023-03-14T01:54:01;8.43;;;0.85;;
76320;SDS011;65132;52.088;5.402;2023-03-14T01:56:33;6.03;;;0.60;;
76320;SDS011;65132;52.088;5.402;2023-03-14T01:59:04;6.43;;;0.88;;
76320;SDS011;65132;52.088;5.402;2023-03-14T02:01:36;5.13;;;1.48;;
76320;SDS011;65132;52.088;5.402;2023-03-14T02:04:05;8.25;;;1.00;;
76320;SDS011;65132;52.088;5.402;2023-03-14T02:06:35;3.72;;;0.73;;
76320;SDS011;65132;52.088;5.402;2023-03-14T02:09:08;4.78;;;0.63;;
76320;SDS011;65132;52.088;5.402;2023-03-14T02:11:35;7.32;;;1.67;;
76320;SDS011;65132;52.088;5.402;2023-03-14T02:14:02;8.32;;;1.10;;
76320;SDS011;65132;52.088;5.402;2023-03-14T02:16:32;5.40;;;1.00;;
76320;SDS011;65132;52.088;5.402;2023-03-14T02:19:17;4.82;;;0.63;;
76320;SDS011;65132;52.088;5.402;2023-03-14T02:22:14;4.00;;;0.57;;
76320;SDS011;65132;52.088;5.402;2023-03-14T02:27:32;6.65;;;0.70;;
76320;SDS011;65132;52.088;5.402;2023-03-14T02:30:33;7.10;;;1.33;;
76320;SDS011;65132;52.088;5.402;2023-03-14T02:35:27;7.45;;;1.13;;
76320;SDS011;65132;52.088;5.402;2023-03-14T02:38:02;10.30;;;1.13;;
76320;SDS011;65132;52.088;5.402;2023-03-14T02:40:50;7.85;;;1.08;;
76320;SDS011;65132;52.088;5.402;2023-03-14T02:43:19;6.38;;;1.73;;
76320;SDS011;65132;52.088;5.402;2023-03-14T02:45:50;9.93;;;1.42;;
76320;SDS011;65132;52.088;5.402;2023-03-14T02:50:52;6.32;;;1.70;;
76320;SDS011;65132;52.088;5.402;2023-03-14T02:53:21;8.82;;;1.75;;
76320;SDS011;65132;52.088;5.402;2023-03-14T02:55:56;6.93;;;1.50;;
76320;SDS011;65132;52.088;5.402;2023-03-14T02:58:32;6.40;;;1.80;;
76320;SDS011;65132;52.088;5.402;2023-03-14T03:00:59;5.63;;;1.60;;
76320;SDS011;65132;52.088;5.402;2023-03-14T03:03:27;6.38;;;1.58;;
76320;SDS011;65132;52.088;5.402;2023-03-14T03:05:54;7.30;;;0.95;;
76320;SDS011;65132;52.088;5.402;2023-03-14T03:08:24;7.47;;;1.63;;
76320;SDS011;65132;52.088;5.402;2023-03-14T03:10:52;8.85;;;1.80;;
76320;SDS011;65132;52.088;5.402;2023-03-14T03:13:19;6.88;;;1.45;;
76320;SDS011;65132;52.088;5.402;2023-03-14T03:15:47;10.43;;;2.08;;
76320;SDS011;65132;52.088;5.402;2023-03-14T03:18:15;6.90;;;1.40;;
76320;SDS011;65132;52.088;5.402;2023-03-14T03:20:42;4.88;;;1.02;;
76320;SDS011;65132;52.088;5.402;2023-03-14T03:23:13;4.57;;;1.20;;
76320;SDS011;65132;52.088;5.402;2023-03-14T03:25:39;9.45;;;1.52;;
76320;SDS011;65132;52.088;5.402;2023-03-14T03:28:08;6.55;;;1.27;;
76320;SDS011;65132;52.088;5.402;2023-03-14T03:30:41;9.55;;;1.92;;
76320;SDS011;65132;52.088;5.402;2023-03-14T03:33:11;6.75;;;1.27;;
76320;SDS011;65132;52.088;5.402;2023-03-14T03:35:49;7.85;;;1.60;;
76320;SDS011;65132;52.088;5.402;2023-03-14T03:38:16;9.32;;;2.00;;
76320;SDS011;65132;52.088;5.402;2023-03-14T03:40:43;8.10;;;1.08;;
76320;SDS011;65132;52.088;5.402;2023-03-14T03:43:12;6.22;;;1.30;;
76320;SDS011;65132;52.088;5.402;2023-03-14T03:45:38;10.43;;;1.63;;
76320;SDS011;65132;52.088;5.402;2023-03-14T03:48:05;6.72;;;1.30;;
76320;SDS011;65132;52.088;5.402;2023-03-14T03:50:33;4.43;;;0.85;;
76320;SDS011;65132;52.088;5.402;2023-03-14T03:52:59;7.20;;;1.20;;
76320;SDS011;65132;52.088;5.402;2023-03-14T03:55:27;8.45;;;1.70;;
76320;SDS011;65132;52.088;5.402;2023-03-14T03:57:54;5.22;;;1.08;;
76320;SDS011;65132;52.088;5.402;2023-03-14T04:00:20;7.80;;;0.85;;
76320;SDS011;65132;52.088;5.402;2023-03-14T04:02:47;10.45;;;1.65;;
76320;SDS011;65132;52.088;5.402;2023-03-14T04:05:14;8.50;;;1.30;;
76320;SDS011;65132;52.088;5.402;2023-03-14T04:07:40;6.07;;;1.40;;
76320;SDS011;65132;52.088;5.402;2023-03-14T04:10:07;10.95;;;1.55;;
76320;SDS011;65132;52.088;5.402;2023-03-14T04:12:34;8.50;;;1.02;;
76320;SDS011;65132;52.088;5.402;2023-03-14T04:15:00;7.35;;;0.90;;
76320;SDS011;65132;52.088;5.402;2023-03-14T04:17:27;8.38;;;1.10;;
76320;SDS011;65132;52.088;5.402;2023-03-14T04:19:53;7.13;;;0.90;;
76320;SDS011;65132;52.088;5.402;2023-03-14T04:22:20;5.35;;;1.40;;
76320;SDS011;65132;52.088;5.402;2023-03-14T04:24:57;13.45;;;1.65;;
76320;SDS011;65132;52.088;5.402;2023-03-14T04:27:27;4.38;;;1.00;;
76320;SDS011;65132;52.088;5.402;2023-03-14T04:29:56;6.63;;;1.35;;
76320;SDS011;65132;52.088;5.402;2023-03-14T04:35:01;4.18;;;0.80;;
76320;SDS011;65132;52.088;5.402;2023-03-14T04:37:30;7.00;;;0.80;;
76320;SDS011;65132;52.088;5.402;2023-03-14T04:39:58;9.18;;;1.60;;
76320;SDS011;65132;52.088;5.402;2023-03-14T04:42:26;5.07;;;1.13;;
76320;SDS011;65132;52.088;5.402;2023-03-14T04:44:55;9.95;;;1.52;;
76320;SDS011;65132;52.088;5.402;2023-03-14T04:47:22;7.45;;;1.40;;
76320;SDS011;65132;52.088;5.402;2023-03-14T04:49:49;8.10;;;1.33;;
76320;SDS011;65132;52.088;5.402;2023-03-14T04:52:18;7.45;;;1.15;;
76320;SDS011;65132;52.088;5.402;2023-03-14T04:54:44;5.13;;;1.23;;
76320;SDS011;65132;52.088;5.402;2023-03-14T04:57:11;3.88;;;1.00;;
76320;SDS011;65132;52.088;5.402;2023-03-14T04:59:39;4.82;;;1.42;;
76320;SDS011;65132;52.088;5.402;2023-03-14T05:02:05;6.00;;;1.13;;
76320;SDS011;65132;52.088;5.402;2023-03-14T05:04:34;6.38;;;1.10;;
76320;SDS011;65132;52.088;5.402;2023-03-14T05:07:00;7.63;;;1.10;;
76320;SDS011;65132;52.088;5.402;2023-03-14T05:09:38;6.88;;;1.33;;
76320;SDS011;65132;52.088;5.402;2023-03-14T05:12:05;8.23;;;0.90;;
76320;SDS011;65132;52.088;5.402;2023-03-14T05:14:39;4.90;;;1.48;;
76320;SDS011;65132;52.088;5.402;2023-03-14T05:17:06;7.03;;;1.52;;
76320;SDS011;65132;52.088;5.402;2023-03-14T05:19:35;5.65;;;1.30;;
76320;SDS011;65132;52.088;5.402;2023-03-14T05:22:01;9.10;;;1.77;;
76320;SDS011;65132;52.088;5.402;2023-03-14T05:24:31;9.35;;;1.73;;
76320;SDS011;65132;52.088;5.402;2023-03-14T05:26:58;5.55;;;1.33;;
76320;SDS011;65132;52.088;5.402;2023-03-14T05:29:27;8.23;;;1.75;;
76320;SDS011;65132;52.088;5.402;2023-03-14T05:31:53;6.05;;;1.50;;
76320;SDS011;65132;52.088;5.402;2023-03-14T05:34:23;5.68;;;1.50;;
76320;SDS011;65132;52.088;5.402;2023-03-14T05:36:52;8.82;;;1.67;;
76320;SDS011;65132;52.088;5.402;2023-03-14T05:39:19;3.83;;;0.95;;
76320;SDS011;65132;52.088;5.402;2023-03-14T05:41:46;7.60;;;1.70;;
76320;SDS011;65132;52.088;5.402;2023-03-14T05:44:24;8.68;;;1.98;;
76320;SDS011;65132;52.088;5.402;2023-03-14T05:46:53;8.30;;;2.10;;
76320;SDS011;65132;52.088;5.402;2023-03-14T05:49:22;9.07;;;2.05;;
76320;SDS011;65132;52.088;5.402;2023-03-14T05:51:50;7.10;;;1.80;;
76320;SDS011;65132;52.088;5.402;2023-03-14T05:54:17;12.07;;;2.10;;
76320;SDS011;65132;52.088;5.402;2023-03-14T05:56:51;9.65;;;2.13;;
76320;SDS011;65132;52.088;5.402;2023-03-14T05:59:19;11.65;;;2.22;;
76320;SDS011;65132;52.088;5.402;2023-03-14T06:01:46;10.88;;;2.63;;
76320;SDS011;65132;52.088;5.402;2023-03-14T06:04:13;6.82;;;2.00;;
76320;SDS011;65132;52.088;5.402;2023-03-14T06:06:40;7.22;;;2.35;;
76320;SDS011;65132;52.088;5.402;2023-03-14T06:09:09;7.25;;;1.65;;
76320;SDS011;65132;52.088;5.402;2023-03-14T06:11:36;7.72;;;2.40;;
76320;SDS011;65132;52.088;5.402;2023-03-14T06:14:06;8.98;;;2.47;;
76320;SDS011;65132;52.088;5.402;2023-03-14T06:16:33;11.52;;;2.72;;
76320;SDS011;65132;52.088;5.402;2023-03-14T06:19:01;8.20;;;2.53;;
76320;SDS011;65132;52.088;5.402;2023-03-14T06:21:28;13.77;;;3.90;;
76320;SDS011;65132;52.088;5.402;2023-03-14T06:23:57;8.27;;;2.50;;
76320;SDS011;65132;52.088;5.402;2023-03-14T06:26:24;9.93;;;2.65;;
76320;SDS011;65132;52.088;5.402;2023-03-14T06:28:50;11.70;;;3.25;;
76320;SDS011;65132;52.088;5.402;2023-03-14T06:31:17;13.02;;;3.63;;
76320;SDS011;65132;52.088;5.402;2023-03-14T06:33:44;7.60;;;2.90;;
76320;SDS011;65132;52.088;5.402;2023-03-14T06:36:11;9.20;;;2.80;;
76320;SDS011;65132;52.088;5.402;2023-03-14T06:38:41;5.97;;;2.95;;
76320;SDS011;65132;52.088;5.402;2023-03-14T06:41:08;14.88;;;3.40;;
76320;SDS011;65132;52.088;5.402;2023-03-14T06:43:38;4.95;;;1.80;;
76320;SDS011;65132;52.088;5.402;2023-03-14T06:46:05;5.53;;;1.77;;
76320;SDS011;65132;52.088;5.402;2023-03-14T06:48:37;2.78;;;1.00;;
76320;SDS011;65132;52.088;5.402;2023-03-14T06:51:03;2.35;;;0.40;;
76320;SDS011;65132;52.088;5.402;2023-03-14T06:53:33;1.45;;;0.28;;
76320;SDS011;65132;52.088;5.402;2023-03-14T06:55:59;3.47;;;0.43;;
76320;SDS011;65132;52.088;5.402;2023-03-14T06:58:26;2.35;;;0.30;;
76320;SDS011;65132;52.088;5.402;2023-03-14T07:00:53;0.80;;;0.20;;
76320;SDS011;65132;52.088;5.402;2023-03-14T07:03:20;0.88;;;0.13;;
76320;SDS011;65132;52.088;5.402;2023-03-14T07:05:46;2.78;;;0.30;;
76320;SDS011;65132;52.088;5.402;2023-03-14T07:08:13;2.60;;;0.30;;
76320;SDS011;65132;52.088;5.402;2023-03-14T07:10:40;1.70;;;0.50;;
76320;SDS011;65132;52.088;5.402;2023-03-14T07:13:09;2.00;;;0.30;;
76320;SDS011;65132;52.088;5.402;2023-03-14T07:23:35;4.30;;;0.77;;
76320;SDS011;65132;52.088;5.402;2023-03-14T07:26:02;2.22;;;0.68;;
76320;SDS011;65132;52.088;5.402;2023-03-14T07:39:08;3.90;;;0.88;;
76320;SDS011;65132;52.088;5.402;2023-03-14T07:41:36;2.35;;;0.60;;
76320;SDS011;65132;52.088;5.402;2023-03-14T07:44:03;5.20;;;0.65;;
76320;SDS011;65132;52.088;5.402;2023-03-14T07:46:29;1.45;;;0.32;;
76320;SDS011;65132;52.088;5.402;2023-03-14T07:48:56;1.50;;;0.30;;
76320;SDS011;65132;52.088;5.402;2023-03-14T07:51:22;1.58;;;0.20;;
76320;SDS011;65132;52.088;5.402;2023-03-14T07:53:49;1.98;;;0.20;;
76320;SDS011;65132;52.088;5.402;2023-03-14T07:56:17;2.78;;;0.20;;
76320;SDS011;65132;52.088;5.402;2023-03-14T07:58:43;2.70;;;0.22;;
76320;SDS011;65132;52.088;5.402;2023-03-14T08:01:10;3.83;;;0.30;;
76320;SDS011;65132;52.088;5.402;2023-03-14T08:03:36;2.90;;;0.30;;
76320;SDS011;65132;52.088;5.402;2023-03-14T08:06:03;3.25;;;0.32;;
76320;SDS011;65132;52.088;5.402;2023-03-14T08:08:29;6.10;;;0.50;;
76320;SDS011;65132;52.088;5.402;2023-03-14T08:11:02;2.60;;;0.40;;
76320;SDS011;65132;52.088;5.402;2023-03-14T08:13:37;2.83;;;0.15;;
76320;SDS011;65132;52.088;5.402;2023-03-14T08:16:05;8.23;;;0.50;;
76320;SDS011;65132;52.088;5.402;2023-03-14T08:18:32;5.72;;;0.50;;
76320;SDS011;65132;52.088;5.402;2023-03-14T08:21:00;4.75;;;0.30;;
76320;SDS011;65132;52.088;5.402;2023-03-14T08:23:33;6.10;;;0.40;;
76320;SDS011;65132;52.088;5.402;2023-03-14T08:26:03;5.22;;;0.50;;
76320;SDS011;65132;52.088;5.402;2023-03-14T08:28:32;6.30;;;0.70;;
76320;SDS011;65132;52.088;5.402;2023-03-14T08:31:00;2.33;;;0.30;;
76320;SDS011;65132;52.088;5.402;2023-03-14T08:33:28;6.32;;;0.50;;
76320;SDS011;65132;52.088;5.402;2023-03-14T08:36:04;3.60;;;0.40;;
76320;SDS011;65132;52.088;5.402;2023-03-14T08:38:31;3.55;;;0.22;;
76320;SDS011;65132;52.088;5.402;2023-03-14T08:40:58;3.00;;;0.40;;
76320;SDS011;65132;52.088;5.402;2023-03-14T08:43:29;3.38;;;0.10;;
76320;SDS011;65132;52.088;5.402;2023-03-14T08:46:01;3.10;;;0.40;;
76320;SDS011;65132;52.088;5.402;2023-03-14T08:48:27;4.40;;;0.30;;
76320;SDS011;65132;52.088;5.402;2023-03-14T08:50:55;1.85;;;0.20;;
76320;SDS011;65132;52.088;5.402;2023-03-14T08:53:22;3.15;;;0.45;;
76320;SDS011;65132;52.088;5.402;2023-03-14T08:55:52;4.38;;;0.20;;
76320;SDS011;65132;52.088;5.402;2023-03-14T08:58:19;4.38;;;0.30;;
76320;SDS011;65132;52.088;5.402;2023-03-14T09:00:46;4.30;;;0.28;;
76320;SDS011;65132;52.088;5.402;2023-03-14T09:03:14;2.47;;;0.20;;
76320;SDS011;65132;52.088;5.402;2023-03-14T09:05:40;5.15;;;0.30;;
76320;SDS011;65132;52.088;5.402;2023-03-14T09:08:07;4.53;;;0.60;;
76320;SDS011;65132;52.088;5.402;2023-03-14T09:10:36;5.13;;;0.52;;
76320;SDS011;65132;52.088;5.402;2023-03-14T09:13:02;4.88;;;0.20;;
76320;SDS011;65132;52.088;5.402;2023-03-14T09:15:31;5.80;;;0.28;;
76320;SDS011;65132;52.088;5.402;2023-03-14T09:17:58;4.53;;;0.40;;
76320;SDS011;65132;52.088;5.402;2023-03-14T09:20:24;6.15;;;0.40;;
76320;SDS011;65132;52.088;5.402;2023-03-14T09:22:51;5.57;;;0.70;;
76320;SDS011;65132;52.088;5.402;2023-03-14T09:25:17;6.20;;;0.45;;
76320;SDS011;65132;52.088;5.402;2023-03-14T09:27:44;5.03;;;0.65;;
76320;SDS011;65132;52.088;5.402;2023-03-14T09:30:11;5.40;;;0.50;;
76320;SDS011;65132;52.088;5.402;2023-03-14T09:32:40;8.15;;;0.47;;
76320;SDS011;65132;52.088;5.402;2023-03-14T09:35:06;3.15;;;0.35;;
76320;SDS011;65132;52.088;5.402;2023-03-14T09:37:33;4.82;;;0.95;;
76320;SDS011;65132;52.088;5.402;2023-03-14T09:40:00;6.22;;;0.68;;
76320;SDS011;65132;52.088;5.402;2023-03-14T09:42:26;5.57;;;0.43;;
76320;SDS011;65132;52.088;5.402;2023-03-14T09:44:54;8.63;;;0.75;;
76320;SDS011;65132;52.088;5.402;2023-03-14T09:47:25;5.75;;;0.90;;
76320;SDS011;65132;52.088;5.402;2023-03-14T09:49:52;4.72;;;0.50;;
76320;SDS011;65132;52.088;5.402;2023-03-14T09:54:57;8.23;;;1.02;;
76320;SDS011;65132;52.088;5.402;2023-03-14T09:59:56;5.82;;;1.00;;
76320;SDS011;65132;52.088;5.402;2023-03-14T10:02:34;5.20;;;0.52;;
76320;SDS011;65132;52.088;5.402;2023-03-14T10:05:04;6.75;;;1.13;;
76320;SDS011;65132;52.088;5.402;2023-03-14T10:07:37;7.53;;;0.88;;
76320;SDS011;65132;52.088;5.402;2023-03-14T10:10:14;10.63;;;0.73;;
76320;SDS011;65132;52.088;5.402;2023-03-14T10:12:47;7.28;;;0.98;;
76320;SDS011;65132;52.088;5.402;2023-03-14T10:15:39;5.22;;;0.70;;
76320;SDS011;65132;52.088;5.402;2023-03-14T10:18:10;7.20;;;0.63;;
76320;SDS011;65132;52.088;5.402;2023-03-14T10:20:39;9.93;;;1.02;;
76320;SDS011;65132;52.088;5.402;2023-03-14T10:23:28;9.50;;;1.17;;
76320;SDS011;65132;52.088;5.402;2023-03-14T10:26:14;4.70;;;1.00;;
76320;SDS011;65132;52.088;5.402;2023-03-14T10:28:47;7.40;;;1.25;;
76320;SDS011;65132;52.088;5.402;2023-03-14T10:31:17;12.02;;;0.93;;
76320;SDS011;65132;52.088;5.402;2023-03-14T10:33:57;12.30;;;0.90;;
76320;SDS011;65132;52.088;5.402;2023-03-14T10:36:29;9.77;;;1.00;;
76320;SDS011;65132;52.088;5.402;2023-03-14T10:39:44;9.60;;;0.80;;
76320;SDS011;65132;52.088;5.402;2023-03-14T10:42:26;11.35;;;1.40;;
76320;SDS011;65132;52.088;5.402;2023-03-14T10:44:56;7.68;;;0.75;;
76320;SDS011;65132;52.088;5.402;2023-03-14T10:47:26;9.13;;;1.20;;
76320;SDS011;65132;52.088;5.402;2023-03-14T10:49:53;9.38;;;0.63;;
76320;SDS011;65132;52.088;5.402;2023-03-14T10:52:24;9.90;;;1.60;;
76320;SDS011;65132;52.088;5.402;2023-03-14T10:55:15;11.95;;;1.23;;
76320;SDS011;65132;52.088;5.402;2023-03-14T10:57:42;10.63;;;1.23;;
76320;SDS011;65132;52.088;5.402;2023-03-14T11:08:46;14.40;;;1.30;;
76320;SDS011;65132;52.088;5.402;2023-03-14T11:11:29;14.25;;;1.42;;
76320;SDS011;65132;52.088;5.402;2023-03-14T11:16:53;10.20;;;1.00;;
76320;SDS011;65132;52.088;5.402;2023-03-14T11:24:49;6.13;;;0.90;;
76320;SDS011;65132;52.088;5.402;2023-03-14T11:27:25;7.93;;;0.80;;
76320;SDS011;65132;52.088;5.402;2023-03-14T11:30:42;6.72;;;0.88;;
76320;SDS011;65132;52.088;5.402;2023-03-14T11:35:47;11.18;;;0.90;;
76320;SDS011;65132;52.088;5.402;2023-03-14T11:40:57;11.65;;;1.02;;
76320;SDS011;65132;52.088;5.402;2023-03-14T11:43:29;7.10;;;1.15;;
76320;SDS011;65132;52.088;5.402;2023-03-14T11:46:24;8.27;;;0.80;;
76320;SDS011;65132;52.088;5.402;2023-03-14T11:51:56;7.57;;;0.90;;
76320;SDS011;65132;52.088;5.402;2023-03-14T11:54:37;7.20;;;1.25;;
76320;SDS011;65132;52.088;5.402;2023-03-14T11:57:16;9.13;;;1.13;;
76320;SDS011;65132;52.088;5.402;2023-03-14T12:02:39;5.82;;;0.70;;
76320;SDS011;65132;52.088;5.402;2023-03-14T12:11:11;5.15;;;0.32;;
76320;SDS011;65132;52.088;5.402;2023-03-14T12:13:48;6.47;;;0.57;;
76320;SDS011;65132;52.088;5.402;2023-03-14T12:18:50;6.00;;;0.40;;
76320;SDS011;65132;52.088;5.402;2023-03-14T12:21:41;3.30;;;0.57;;
76320;SDS011;65132;52.088;5.402;2023-03-14T12:24:17;7.20;;;0.80;;
76320;SDS011;65132;52.088;5.402;2023-03-14T12:26:53;4.25;;;0.40;;
76320;SDS011;65132;52.088;5.402;2023-03-14T12:29:21;3.67;;;0.50;;
76320;SDS011;65132;52.088;5.402;2023-03-14T12:36:59;6.32;;;0.57;;
76320;SDS011;65132;52.088;5.402;2023-03-14T12:48:01;6.93;;;0.70;;
76320;SDS011;65132;52.088;5.402;2023-03-14T12:56:21;3.75;;;0.50;;
76320;SDS011;65132;52.088;5.402;2023-03-14T13:01:35;3.85;;;0.57;;
76320;SDS011;65132;52.088;5.402;2023-03-14T13:04:03;4.00;;;0.40;;
76320;SDS011;65132;52.088;5.402;2023-03-14T13:11:56;3.95;;;0.40;;
76320;SDS011;65132;52.088;5.402;2023-03-14T13:14:31;3.78;;;0.35;;
76320;SDS011;65132;52.088;5.402;2023-03-14T13:16:59;4.53;;;0.40;;
76320;SDS011;65132;52.088;5.402;2023-03-14T13:19:49;4.53;;;0.63;;
76320;SDS011;65132;52.088;5.402;2023-03-14T13:22:22;4.70;;;0.30;;
76320;SDS011;65132;52.088;5.402;2023-03-14T13:25:05;3.10;;;0.50;;
76320;SDS011;65132;52.088;5.402;2023-03-14T13:27:36;3.88;;;0.22;;
76320;SDS011;65132;52.088;5.402;2023-03-14T13:30:05;3.38;;;0.40;;
76320;SDS011;65132;52.088;5.402;2023-03-14T13:32:42;4.35;;;0.55;;
76320;SDS011;65132;52.088;5.402;2023-03-14T13:35:25;3.70;;;0.30;;
76320;SDS011;65132;52.088;5.402;2023-03-14T13:38:00;4.30;;;0.43;;
76320;SDS011;65132;52.088;5.402;2023-03-14T13:40:43;4.95;;;0.40;;
76320;SDS011;65132;52.088;5.402;2023-03-14T13:46:23;5.90;;;0.70;;
76320;SDS011;65132;52.088;5.402;2023-03-14T13:48:33;5.03;;;0.68;;
76320;SDS011;65132;52.088;5.402;2023-03-14T13:51:10;4.65;;;0.60;;
76320;SDS011;65132;52.088;5.402;2023-03-14T13:53:51;5.22;;;0.50;;
76320;SDS011;65132;52.088;5.402;2023-03-14T13:56:25;5.82;;;0.68;;
76320;SDS011;65132;52.088;5.402;2023-03-14T13:58:53;5.30;;;0.35;;
76320;SDS011;65132;52.088;5.402;2023-03-14T14:01:22;3.40;;;0.30;;
76320;SDS011;65132;52.088;5.402;2023-03-14T14:03:52;3.25;;;0.40;;
76320;SDS011;65132;52.088;5.402;2023-03-14T14:06:37;3.75;;;0.35;;
76320;SDS011;65132;52.088;5.402;2023-03-14T14:09:15;3.72;;;0.85;;
76320;SDS011;65132;52.088;5.402;2023-03-14T14:14:52;5.95;;;0.63;;
76320;SDS011;65132;52.088;5.402;2023-03-14T14:17:27;7.70;;;0.77;;
76320;SDS011;65132;52.088;5.402;2023-03-14T14:19:59;7.15;;;1.25;;
76320;SDS011;65132;52.088;5.402;2023-03-14T14:22:27;6.53;;;0.47;;
76320;SDS011;65132;52.088;5.402;2023-03-14T14:24:55;4.78;;;0.35;;
76320;SDS011;65132;52.088;5.402;2023-03-14T14:27:29;4.05;;;0.50;;
76320;SDS011;65132;52.088;5.402;2023-03-14T14:30:03;4.70;;;0.80;;
76320;SDS011;65132;52.088;5.402;2023-03-14T14:32:37;4.28;;;0.32;;
76320;SDS011;65132;52.088;5.402;2023-03-14T14:35:05;7.70;;;0.60;;
76320;SDS011;65132;52.088;5.402;2023-03-14T14:37:42;4.40;;;0.63;;
76320;SDS011;65132;52.088;5.402;2023-03-14T14:40:24;4.70;;;0.60;;
76320;SDS011;65132;52.088;5.402;2023-03-14T14:42:52;2.75;;;0.40;;
76320;SDS011;65132;52.088;5.402;2023-03-14T14:45:20;5.55;;;0.90;;
76320;SDS011;65132;52.088;5.402;2023-03-14T14:47:53;3.45;;;0.40;;
76320;SDS011;65132;52.088;5.402;2023-03-14T14:50:29;4.65;;;0.60;;
76320;SDS011;65132;52.088;5.402;2023-03-14T14:52:59;3.35;;;0.30;;
76320;SDS011;65132;52.088;5.402;2023-03-14T14:55:45;6.10;;;0.70;;
76320;SDS011;65132;52.088;5.402;2023-03-14T14:58:19;5.20;;;0.40;;
76320;SDS011;65132;52.088;5.402;2023-03-14T15:00:54;4.20;;;0.65;;
76320;SDS011;65132;52.088;5.402;2023-03-14T15:03:30;10.23;;;0.70;;
76320;SDS011;65132;52.088;5.402;2023-03-14T15:05:59;4.35;;;0.52;;
76320;SDS011;65132;52.088;5.402;2023-03-14T15:08:29;2.75;;;0.47;;
76320;SDS011;65132;52.088;5.402;2023-03-14T15:10:56;5.05;;;0.40;;
76320;SDS011;65132;52.088;5.402;2023-03-14T15:13:24;6.18;;;0.63;;
76320;SDS011;65132;52.088;5.402;2023-03-14T15:15:50;4.43;;;0.38;;
76320;SDS011;65132;52.088;5.402;2023-03-14T15:18:18;2.65;;;0.55;;
76320;SDS011;65132;52.088;5.402;2023-03-14T15:20:44;4.85;;;0.50;;
76320;SDS011;65132;52.088;5.402;2023-03-14T15:23:12;6.82;;;0.30;;
76320;SDS011;65132;52.088;5.402;2023-03-14T15:25:40;7.22;;;1.45;;
76320;SDS011;65132;52.088;5.402;2023-03-14T15:28:21;3.25;;;0.40;;
76320;SDS011;65132;52.088;5.402;2023-03-14T15:30:51;5.57;;;0.50;;
76320;SDS011;65132;52.088;5.402;2023-03-14T15:33:19;9.50;;;0.60;;
76320;SDS011;65132;52.088;5.402;2023-03-14T15:35:46;3.55;;;0.30;;
76320;SDS011;65132;52.088;5.402;2023-03-14T15:38:14;2.80;;;0.20;;
76320;SDS011;65132;52.088;5.402;2023-03-14T15:40:44;4.75;;;0.30;;
76320;SDS011;65132;52.088;5.402;2023-03-14T15:43:14;5.25;;;0.30;;
76320;SDS011;65132;52.088;5.402;2023-03-14T15:45:41;4.93;;;0.60;;
76320;SDS011;65132;52.088;5.402;2023-03-14T15:48:20;5.28;;;0.60;;
76320;SDS011;65132;52.088;5.402;2023-03-14T15:50:47;2.78;;;0.45;;
76320;SDS011;65132;52.088;5.402;2023-03-14T15:53:14;3.00;;;0.50;;
76320;SDS011;65132;52.088;5.402;2023-03-14T15:55:42;2.30;;;0.22;;
76320;SDS011;65132;52.088;5.402;2023-03-14T15:58:18;3.15;;;0.30;;
76320;SDS011;65132;52.088;5.402;2023-03-14T16:00:48;2.88;;;0.28;;
76320;SDS011;65132;52.088;5.402;2023-03-14T16:03:19;4.32;;;0.40;;
76320;SDS011;65132;52.088;5.402;2023-03-14T16:05:46;3.17;;;0.88;;
76320;SDS011;65132;52.088;5.402;2023-03-14T16:08:15;4.57;;;0.30;;
76320;SDS011;65132;52.088;5.402;2023-03-14T16:10:42;3.53;;;0.38;;
76320;SDS011;65132;52.088;5.402;2023-03-14T16:13:08;2.50;;;0.50;;
76320;SDS011;65132;52.088;5.402;2023-03-14T16:15:37;6.93;;;0.50;;
76320;SDS011;65132;52.088;5.402;2023-03-14T16:18:03;5.10;;;0.80;;
76320;SDS011;65132;52.088;5.402;2023-03-14T16:20:56;5.38;;;0.50;;
76320;SDS011;65132;52.088;5.402;2023-03-14T16:23:28;3.03;;;0.35;;
76320;SDS011;65132;52.088;5.402;2023-03-14T16:25:54;4.95;;;0.35;;
76320;SDS011;65132;52.088;5.402;2023-03-14T16:28:22;7.05;;;0.47;;
76320;SDS011;65132;52.088;5.402;2023-03-14T16:30:49;3.80;;;0.25;;
76320;SDS011;65132;52.088;5.402;2023-03-14T16:33:15;5.53;;;0.47;;
76320;SDS011;65132;52.088;5.402;2023-03-14T16:35:55;4.22;;;0.38;;
76320;SDS011;65132;52.088;5.402;2023-03-14T16:38:27;11.75;;;2.05;;
76320;SDS011;65132;52.088;5.402;2023-03-14T16:41:09;3.53;;;0.32;;
76320;SDS011;65132;52.088;5.402;2023-03-14T16:43:40;6.72;;;0.60;;
76320;SDS011;65132;52.088;5.402;2023-03-14T16:46:10;3.72;;;0.40;;
76320;SDS011;65132;52.088;5.402;2023-03-14T16:48:42;6.88;;;0.57;;
76320;SDS011;65132;52.088;5.402;2023-03-14T16:51:09;4.00;;;0.40;;
76320;SDS011;65132;52.088;5.402;2023-03-14T16:53:36;5.30;;;0.73;;
76320;SDS011;65132;52.088;5.402;2023-03-14T16:56:02;3.45;;;0.50;;